Time;durP1;ratioP1;P1;durP2;ratioP2;P2;SDS_P1;SDS_P2;PMS_P1;PMS_P2;Temp;Humidity;BMP_temperature;BMP_pressure;BME280_temperature;BME280_humidity;BME280_pressure;Samples;Min_cycle;Max_cycle;Signal;HPM_P1;HPM_P2
2022/11/13 00:02:16;;;;;;;17.83;10.00;;;;;;;5.08;97.25;102684.22;5061632;28;20136;-78
2022/11/13 00:05:00;;;;;;;15.57;10.43;;;;;;;5.05;96.40;102673.63;5055764;28;20071;-78
2022/11/13 00:07:44;;;;;;;13.68;9.20;;;;;;;5.05;96.71;102681.50;5057786;28;20122;-78
2022/11/13 00:10:28;;;;;;;16.10;9.68;;;;;;;5.04;96.54;102674.44;5068473;28;20093;-78
2022/11/13 00:13:12;;;;;;;20.20;10.50;;;;;;;5.04;96.41;102676.19;5065159;28;20526;-78
2022/11/13 00:16:01;;;;;;;16.42;10.73;;;;;;;5.04;97.15;102670.94;5068277;28;20530;-78
2022/11/13 00:18:46;;;;;;;17.80;11.07;;;;;;;5.01;96.94;102658.59;5061882;28;20453;-78
2022/11/13 00:21:30;;;;;;;18.88;10.73;;;;;;;5.01;96.69;102666.47;5073917;28;20071;-78
2022/11/13 00:24:14;;;;;;;19.25;11.00;;;;;;;5.00;97.29;102659.47;5070184;28;20048;-78
2022/11/13 00:26:58;;;;;;;18.02;10.27;;;;;;;4.96;96.57;102666.34;5066297;28;20066;-78
2022/11/13 00:29:42;;;;;;;14.82;9.27;;;;;;;4.95;96.95;102672.44;5065464;28;20074;-78
2022/11/13 00:32:27;;;;;;;16.27;9.25;;;;;;;4.90;96.58;102663.53;5076354;28;20181;-78
2022/11/13 00:35:10;;;;;;;20.40;10.23;;;;;;;4.89;97.36;102661.75;5076602;28;20079;-78
2022/11/13 00:37:54;;;;;;;17.48;10.18;;;;;;;4.86;96.79;102645.91;5064205;28;20432;-78
2022/11/13 00:40:38;;;;;;;17.90;10.18;;;;;;;4.83;96.30;102650.19;5064922;28;20105;-77
2022/11/13 00:43:22;;;;;;;14.77;10.13;;;;;;;4.78;96.78;102646.53;5066433;28;20118;-78
2022/11/13 00:46:07;;;;;;;18.20;10.20;;;;;;;4.77;96.64;102650.88;5064056;28;20047;-78
2022/11/13 00:48:52;;;;;;;19.67;11.00;;;;;;;4.76;97.28;102643.84;5061931;28;20055;-78
2022/11/13 00:51:36;;;;;;;18.08;11.38;;;;;;;4.74;97.04;102637.66;5073672;28;20040;-78
2022/11/13 00:54:20;;;;;;;17.38;10.43;;;;;;;4.69;96.81;102636.63;5064951;28;20114;-78
2022/11/13 00:57:04;;;;;;;15.68;10.50;;;;;;;4.63;96.43;102642.59;5068479;28;20055;-78
2022/11/13 00:59:48;;;;;;;17.95;11.13;;;;;;;4.57;96.48;102644.09;5059971;28;20155;-78
2022/11/13 01:02:32;;;;;;;21.05;10.80;;;;;;;4.52;97.05;102631.75;5059009;28;20132;-78
2022/11/13 01:05:16;;;;;;;18.20;11.43;;;;;;;4.49;97.39;102629.00;5065670;28;20048;-78
2022/11/13 01:08:00;;;;;;;17.95;10.50;;;;;;;4.47;97.04;102637.69;5063259;28;20051;-78
2022/11/13 01:10:47;;;;;;;15.98;9.70;;;;;;;4.42;96.85;102628.78;5064686;28;20140;-78
2022/11/13 01:13:31;;;;;;;17.88;9.48;;;;;;;4.37;96.16;102630.34;5060868;28;20452;-78
2022/11/13 01:16:17;;;;;;;21.42;10.20;;;;;;;4.36;96.56;102631.22;5056959;28;20544;-73
2022/11/13 01:19:00;;;;;;;16.95;10.40;;;;;;;4.31;96.28;102628.44;5058705;28;20369;-73
2022/11/13 01:21:45;;;;;;;15.38;9.82;;;;;;;4.27;96.07;102623.91;5056294;28;20126;-73
2022/11/13 01:24:30;;;;;;;12.80;8.68;;;;;;;4.25;96.29;102626.50;5056130;28;20083;-74
2022/11/13 01:27:14;;;;;;;15.82;9.20;;;;;;;4.27;96.71;102629.16;5057098;28;20058;-73
2022/11/13 01:29:58;;;;;;;12.07;8.80;;;;;;;4.23;96.33;102629.94;5073639;28;20080;-74
2022/11/13 01:32:42;;;;;;;16.83;8.80;;;;;;;4.18;97.11;102626.22;5058922;28;20072;-73
2022/11/13 01:35:26;;;;;;;14.20;9.13;;;;;;;4.15;97.31;102619.16;5057816;28;20101;-73
2022/11/13 01:38:10;;;;;;;14.18;8.50;;;;;;;4.15;97.19;102611.28;5072700;28;20119;-73
2022/11/13 01:40:54;;;;;;;12.00;8.02;;;;;;;4.13;97.01;102605.13;5073428;28;20051;-73
2022/11/13 01:43:38;;;;;;;17.20;9.20;;;;;;;4.15;96.84;102605.16;5072641;28;20047;-73
2022/11/13 01:46:28;;;;;;;15.25;8.63;;;;;;;4.16;97.68;102605.22;5073845;28;20055;-73
2022/11/13 01:49:30;;;;;;;12.55;8.38;;;;;;;4.18;97.72;102606.19;5062228;28;20083;-73
2022/11/13 01:52:19;;;;;;;12.05;8.40;;;;;;;4.20;98.24;102612.34;5058110;28;20062;-73
2022/11/13 01:55:09;;;;;;;11.18;7.97;;;;;;;4.22;98.73;102608.03;5051618;28;20508;-74
2022/11/13 01:57:54;;;;;;;10.43;7.75;;;;;;;4.22;98.67;102602.78;5057153;28;20510;-74
2022/11/13 02:00:38;;;;;;;10.93;8.05;;;;;;;4.23;98.35;102596.72;5072578;28;20052;-74
2022/11/13 02:03:22;;;;;;;12.30;7.55;;;;;;;4.25;98.67;102595.03;5057827;28;20055;-74
2022/11/13 02:06:06;;;;;;;14.45;8.20;;;;;;;4.26;98.34;102585.44;5057256;28;20043;-74
2022/11/13 02:08:50;;;;;;;12.82;7.55;;;;;;;4.27;98.05;102579.34;5070533;28;20052;-74
2022/11/13 02:11:36;;;;;;;9.70;7.07;;;;;;;4.28;98.33;102578.50;5061708;28;20094;-74
2022/11/13 02:14:23;;;;;;;12.30;7.97;;;;;;;4.27;98.10;102574.97;5083215;28;20215;-74
2022/11/13 02:17:11;;;;;;;14.25;8.02;;;;;;;4.28;98.08;102570.66;5083977;28;20097;-74
2022/11/13 02:20:00;;;;;;;18.08;7.85;;;;;;;4.27;97.99;102572.34;5065247;28;20114;-74
2022/11/13 02:22:55;;;;;;;11.02;7.80;;;;;;;4.24;97.44;102572.25;5070836;28;20124;-74
2022/11/13 02:25:42;;;;;;;10.25;7.15;;;;;;;4.21;96.85;102560.81;5071261;28;20119;-74
2022/11/13 02:28:26;;;;;;;9.73;6.78;;;;;;;4.19;96.88;102563.38;5060797;28;20119;-74
2022/11/13 02:31:12;;;;;;;11.00;6.68;;;;;;;4.19;97.17;102565.97;5052954;28;20047;-74
2022/11/13 02:33:55;;;;;;;11.63;7.43;;;;;;;4.20;97.54;102564.25;5070169;28;20122;-74
2022/11/13 02:36:39;;;;;;;12.05;8.05;;;;;;;4.20;98.36;102565.13;5069533;28;20401;-74
2022/11/13 02:39:24;;;;;;;11.75;8.32;;;;;;;4.23;98.41;102572.25;5070677;28;20125;-74
2022/11/13 02:42:07;;;;;;;10.88;7.07;;;;;;;4.26;98.76;102567.09;5070866;28;20056;-75
2022/11/13 02:44:51;;;;;;;11.18;7.38;;;;;;;4.30;98.75;102559.38;5069501;28;20419;-74
2022/11/13 02:47:35;;;;;;;9.85;7.10;;;;;;;4.35;98.67;102559.47;5069811;28;20387;-74
2022/11/13 02:50:19;;;;;;;12.15;7.38;;;;;;;4.40;98.84;102547.44;5071310;28;20145;-74
2022/11/13 02:53:04;;;;;;;11.65;7.15;;;;;;;4.44;98.99;102551.03;5074796;28;20114;-74
2022/11/13 02:55:49;;;;;;;10.82;7.30;;;;;;;4.46;99.07;102544.97;5074824;28;20047;-74
2022/11/13 02:58:33;;;;;;;8.82;6.57;;;;;;;4.53;99.23;102541.69;5074034;28;20522;-74
2022/11/13 03:01:17;;;;;;;11.43;7.47;;;;;;;4.61;99.32;102543.66;5063238;28;20059;-74
2022/11/13 03:04:00;;;;;;;12.05;7.43;;;;;;;4.66;99.49;102540.31;5061875;28;20127;-74
2022/11/13 03:06:44;;;;;;;12.75;8.05;;;;;;;4.75;99.75;102542.34;5075053;28;20185;-74
2022/11/13 03:09:28;;;;;;;12.13;7.95;;;;;;;4.86;100.00;102540.03;5071550;28;20060;-74
2022/11/13 03:12:13;;;;;;;11.57;7.65;;;;;;;4.93;99.67;102541.97;5066593;28;20056;-74
2022/11/13 03:14:57;;;;;;;13.95;6.88;;;;;;;4.98;99.59;102535.13;5074856;28;20116;-74
2022/11/13 03:17:41;;;;;;;11.05;7.35;;;;;;;5.06;99.25;102536.22;5079412;28;20052;-74
2022/11/13 03:20:25;;;;;;;11.63;6.97;;;;;;;5.12;99.28;102522.38;5073662;28;20058;-74
2022/11/13 03:23:09;;;;;;;10.55;7.35;;;;;;;5.16;98.88;102522.50;5073436;28;20109;-74
2022/11/13 03:25:53;;;;;;;10.63;7.20;;;;;;;5.20;99.18;102520.84;5074371;28;20557;-74
2022/11/13 03:28:37;;;;;;;10.23;6.95;;;;;;;5.25;98.31;102511.34;5066633;28;20056;-74
2022/11/13 03:31:21;;;;;;;11.48;7.35;;;;;;;5.31;97.90;102508.00;5062700;28;20040;-73
2022/11/13 03:34:05;;;;;;;9.35;6.68;;;;;;;5.31;97.50;102498.38;5073034;28;20479;-72
2022/11/13 03:36:49;;;;;;;12.15;7.95;;;;;;;5.36;97.67;102502.00;5069338;28;20107;-72
2022/11/13 03:39:33;;;;;;;11.05;7.65;;;;;;;5.39;97.86;102503.84;5086581;28;20499;-72
2022/11/13 03:42:17;;;;;;;9.70;6.63;;;;;;;5.46;96.92;102497.00;5073117;28;20099;-72
2022/11/13 03:45:01;;;;;;;10.18;6.90;;;;;;;5.49;97.50;102497.97;5075589;28;20113;-72
2022/11/13 03:47:47;;;;;;;13.60;7.05;;;;;;;5.53;96.65;102506.81;5073361;28;20075;-72
2022/11/13 03:50:31;;;;;;;10.80;7.10;;;;;;;5.55;96.47;102498.13;5073246;28;20467;-72
2022/11/13 03:53:15;;;;;;;11.68;7.80;;;;;;;5.59;96.50;102502.63;5072754;28;20064;-72
2022/11/13 03:55:59;;;;;;;12.75;7.85;;;;;;;5.63;96.55;102500.06;5072582;28;20048;-76
2022/11/13 03:58:43;;;;;;;12.23;7.30;;;;;;;5.64;96.41;102502.75;5073582;28;20408;-77
2022/11/13 04:01:27;;;;;;;11.90;8.05;;;;;;;5.64;95.74;102501.81;5059265;28;20524;-78
2022/11/13 04:04:11;;;;;;;15.00;6.70;;;;;;;5.62;95.68;102493.91;5074336;28;20098;-78
2022/11/13 04:06:54;;;;;;;8.90;6.05;;;;;;;5.59;95.02;102489.47;5072377;28;20106;-79
2022/11/13 04:09:39;;;;;;;11.07;6.63;;;;;;;5.61;95.65;102486.88;5069988;28;20052;-78
2022/11/13 04:12:22;;;;;;;12.52;7.07;;;;;;;5.62;95.82;102478.16;5067612;28;20091;-79
2022/11/13 04:15:07;;;;;;;12.23;6.85;;;;;;;5.64;95.95;102479.09;5073651;28;20562;-79
2022/11/13 04:17:51;;;;;;;13.02;7.57;;;;;;;5.67;95.65;102475.66;5073638;28;20058;-78
2022/11/13 04:20:34;;;;;;;11.57;7.65;;;;;;;5.70;95.39;102476.59;5072193;28;20059;-78
2022/11/13 04:23:18;;;;;;;13.68;7.10;;;;;;;5.71;95.47;102473.13;5072090;28;20131;-78
2022/11/13 04:26:02;;;;;;;12.68;7.10;;;;;;;5.72;95.04;102469.63;5071844;28;20047;-78
2022/11/13 04:28:46;;;;;;;11.75;7.00;;;;;;;5.73;95.03;102465.25;5061370;28;20425;-79
2022/11/13 04:31:30;;;;;;;11.25;7.55;;;;;;;5.76;95.24;102474.13;5073568;28;20523;-79
2022/11/13 04:34:14;;;;;;;14.70;7.55;;;;;;;5.80;94.83;102464.56;5062285;28;20047;-78
2022/11/13 04:36:58;;;;;;;14.07;7.45;;;;;;;5.84;95.43;102458.53;5071710;28;20059;-79
2022/11/13 04:39:42;;;;;;;12.05;8.02;;;;;;;5.84;94.33;102455.91;5052605;28;20429;-78
2022/11/13 04:45:29;;;;;;;11.98;6.85;;;;;;;5.87;94.67;102455.09;5069024;28;20047;-79
2022/11/13 04:48:13;;;;;;;14.13;7.55;;;;;;;5.86;94.46;102443.69;5062667;28;20108;-78
2022/11/13 04:50:57;;;;;;;10.80;7.13;;;;;;;5.88;93.73;102455.09;5057098;28;20109;-79
2022/11/13 04:53:41;;;;;;;13.25;6.60;;;;;;;5.89;93.88;102461.28;5072780;28;20067;-79
2022/11/13 04:56:25;;;;;;;10.75;6.90;;;;;;;5.87;93.25;102460.34;5072242;28;20046;-78
2022/11/13 04:59:09;;;;;;;10.15;6.75;;;;;;;5.85;93.41;102451.53;5072735;28;20067;-78
2022/11/13 05:01:54;;;;;;;15.98;8.35;;;;;;;5.84;93.10;102455.91;5071412;28;20052;-79
2022/11/13 05:04:38;;;;;;;12.63;6.97;;;;;;;5.85;93.19;102452.41;5072590;28;20056;-78
2022/11/13 05:07:22;;;;;;;11.25;7.18;;;;;;;5.84;93.24;102455.03;5058529;28;20439;-79
2022/11/13 05:10:07;;;;;;;12.15;7.13;;;;;;;5.80;93.01;102454.94;5066823;28;20052;-78
2022/11/13 05:12:55;;;;;;;10.95;7.10;;;;;;;5.77;93.26;102449.59;5060296;28;20044;-79
2022/11/13 05:15:38;;;;;;;10.50;7.05;;;;;;;5.75;93.36;102451.31;5056902;28;20442;-79
2022/11/13 05:18:24;;;;;;;11.25;7.43;;;;;;;5.73;92.83;102452.13;5054398;28;20059;-77
2022/11/13 05:21:09;;;;;;;13.45;6.95;;;;;;;5.68;92.59;102446.75;5065925;28;20406;-76
2022/11/13 05:23:53;;;;;;;10.52;7.07;;;;;;;5.67;92.72;102438.84;5061241;28;20055;-77
2022/11/13 05:26:38;;;;;;;11.55;6.93;;;;;;;5.64;93.02;102436.13;5067000;28;20404;-77
2022/11/13 05:29:22;;;;;;;10.95;6.72;;;;;;;5.61;92.77;102439.56;5071655;28;20181;-77
2022/11/13 05:32:06;;;;;;;11.43;7.28;;;;;;;5.57;92.44;102438.63;5069636;28;20098;-77
2022/11/13 05:34:50;;;;;;;11.18;7.05;;;;;;;5.54;92.23;102430.66;5060785;28;20087;-77
2022/11/13 05:37:34;;;;;;;12.27;7.35;;;;;;;5.54;92.45;102433.28;5080673;28;20092;-77
2022/11/13 05:40:18;;;;;;;11.73;6.70;;;;;;;5.50;92.55;102438.44;5072173;28;20395;-76
2022/11/13 05:43:02;;;;;;;11.65;6.18;;;;;;;5.46;92.13;102426.06;5063069;28;20098;-76
2022/11/13 05:45:46;;;;;;;12.38;7.30;;;;;;;5.40;92.10;102432.06;5070755;28;20518;-76
2022/11/13 05:48:30;;;;;;;12.50;6.65;;;;;;;5.35;91.75;102436.31;5065209;28;20056;-77
2022/11/13 05:51:18;;;;;;;13.73;7.03;;;;;;;5.28;91.99;102434.38;5069069;28;20098;-77
2022/11/13 05:54:02;;;;;;;11.50;6.85;;;;;;;5.21;91.83;102427.19;5070761;28;20039;-77
2022/11/13 05:56:46;;;;;;;10.85;7.07;;;;;;;5.13;92.07;102427.88;5065903;28;20137;-77
2022/11/13 05:59:29;;;;;;;9.73;6.07;;;;;;;5.08;91.99;102436.50;5078999;28;20105;-76
2022/11/13 06:02:13;;;;;;;9.07;6.32;;;;;;;5.00;91.75;102427.53;5070506;28;20066;-76
2022/11/13 06:04:57;;;;;;;10.88;6.47;;;;;;;4.91;91.40;102430.78;5069474;28;20052;-76
2022/11/13 06:07:41;;;;;;;11.52;6.65;;;;;;;4.85;91.78;102433.25;5067690;28;20531;-76
2022/11/13 06:10:25;;;;;;;9.80;6.82;;;;;;;4.78;92.46;102426.94;5062295;28;20055;-76
2022/11/13 06:13:09;;;;;;;13.48;6.68;;;;;;;4.66;92.93;102419.63;5059527;28;20067;-77
2022/11/13 06:15:54;;;;;;;10.25;6.22;;;;;;;4.58;92.20;102421.16;5063865;28;20071;-76
2022/11/13 06:18:39;;;;;;;10.73;7.05;;;;;;;4.50;92.44;102418.31;5060878;28;20523;-77
2022/11/13 06:21:26;;;;;;;10.57;6.65;;;;;;;4.41;92.78;102410.16;5061581;28;20189;-76
2022/11/13 06:24:12;;;;;;;10.98;6.25;;;;;;;4.36;93.06;102408.28;5073414;28;20110;-76
2022/11/13 06:26:56;;;;;;;9.75;6.03;;;;;;;4.27;92.56;102414.13;5057236;28;20556;-76
2022/11/13 06:29:39;;;;;;;9.45;6.25;;;;;;;4.18;93.50;102414.75;5055422;28;20115;-76
2022/11/13 06:32:23;;;;;;;14.55;6.68;;;;;;;4.12;92.87;102416.28;5060411;28;20099;-76
2022/11/13 06:35:08;;;;;;;11.60;6.50;;;;;;;4.07;93.04;102408.28;5055429;28;20109;-76
2022/11/13 06:37:54;;;;;;;13.88;6.20;;;;;;;4.01;92.28;102408.13;5057648;28;20049;-76
2022/11/13 06:40:39;;;;;;;12.05;6.38;;;;;;;3.97;92.39;102412.38;5063180;28;20071;-76
2022/11/13 06:43:23;;;;;;;12.32;7.03;;;;;;;3.91;93.23;102408.66;5056161;28;20056;-76
2022/11/13 06:46:12;;;;;;;10.07;6.15;;;;;;;3.86;93.52;102404.19;5057145;28;20062;-76
2022/11/13 06:48:56;;;;;;;10.40;6.45;;;;;;;3.81;94.15;102399.66;5057148;28;20542;-76
2022/11/13 06:51:40;;;;;;;11.73;6.60;;;;;;;3.77;94.48;102395.16;5058613;28;20132;-76
2022/11/13 06:54:24;;;;;;;10.35;6.93;;;;;;;3.73;94.11;102390.66;5054173;28;20063;-76
2022/11/13 06:57:08;;;;;;;10.80;6.28;;;;;;;3.69;93.87;102392.28;5056701;28;20086;-77
2022/11/13 06:59:52;;;;;;;9.73;6.60;;;;;;;3.63;94.09;102398.19;5057071;28;20047;-76
2022/11/13 07:02:36;;;;;;;14.85;6.38;;;;;;;3.61;94.58;102394.69;5072345;28;20055;-76
2022/11/13 07:05:20;;;;;;;10.90;6.40;;;;;;;3.57;95.30;102390.16;5071343;28;20110;-76
2022/11/13 07:08:04;;;;;;;10.73;6.72;;;;;;;3.55;95.45;102391.84;5055794;28;20147;-76
2022/11/13 07:10:53;;;;;;;12.07;7.55;;;;;;;3.53;96.49;102390.91;5061339;28;20392;-76
2022/11/13 07:13:38;;;;;;;10.20;6.47;;;;;;;3.53;95.84;102385.66;5066684;28;20055;-77
2022/11/13 07:16:22;;;;;;;9.65;6.20;;;;;;;3.50;95.49;102403.03;5054432;28;20048;-76
2022/11/13 07:19:06;;;;;;;8.77;6.40;;;;;;;3.48;96.01;102394.22;5057988;28;20051;-76
2022/11/13 07:21:50;;;;;;;12.40;7.32;;;;;;;3.49;96.15;102393.38;5057643;28;20369;-76
2022/11/13 07:24:34;;;;;;;9.93;6.90;;;;;;;3.48;96.65;102400.34;5054832;28;20047;-76
2022/11/13 07:27:18;;;;;;;13.15;6.60;;;;;;;3.48;96.75;102392.47;5057987;28;20541;-76
2022/11/13 07:30:02;;;;;;;10.25;6.45;;;;;;;3.49;96.79;102396.91;5054360;28;20098;-76
2022/11/13 07:32:46;;;;;;;10.00;6.50;;;;;;;3.49;95.84;102391.66;5057750;28;20079;-76
2022/11/13 07:35:30;;;;;;;10.57;6.63;;;;;;;3.52;96.53;102393.50;5057155;28;20163;-76
2022/11/13 07:38:14;;;;;;;11.95;7.55;;;;;;;3.53;96.73;102388.28;5057290;28;20527;-76
2022/11/13 07:40:58;;;;;;;14.05;7.00;;;;;;;3.54;96.86;102384.84;5059462;28;20060;-76
2022/11/13 07:43:42;;;;;;;9.88;6.28;;;;;;;3.57;96.54;102398.03;5057826;28;20055;-76
2022/11/13 07:46:26;;;;;;;12.13;7.20;;;;;;;3.59;96.83;102383.25;5061221;28;20091;-76
2022/11/13 07:49:10;;;;;;;10.20;6.57;;;;;;;3.64;97.12;102389.53;5058015;28;20581;-76
2022/11/13 07:51:55;;;;;;;11.23;6.90;;;;;;;3.67;96.68;102380.88;5057367;28;20048;-76
2022/11/13 07:54:39;;;;;;;10.25;7.22;;;;;;;3.72;97.49;102387.13;5070972;28;20055;-76
2022/11/13 07:57:23;;;;;;;10.20;7.30;;;;;;;3.80;97.85;102392.63;5064886;28;20071;-76
2022/11/13 08:00:08;;;;;;;12.23;6.10;;;;;;;3.84;97.36;102379.66;5070733;28;20086;-76
2022/11/13 08:02:52;;;;;;;10.98;6.60;;;;;;;3.92;97.92;102373.75;5071638;28;20149;-76
2022/11/13 08:05:37;;;;;;;10.88;6.50;;;;;;;4.01;98.33;102379.28;5055357;28;20071;-76
2022/11/13 08:08:21;;;;;;;13.48;6.68;;;;;;;4.10;98.13;102390.03;5063921;28;20031;-76
2022/11/13 08:11:07;;;;;;;9.85;6.22;;;;;;;4.14;97.73;102381.41;5067526;28;20063;-76
2022/11/13 08:13:51;;;;;;;11.48;7.20;;;;;;;4.22;97.37;102379.88;5071078;28;20042;-76
2022/11/13 08:16:35;;;;;;;8.55;6.28;;;;;;;4.32;98.26;102378.44;5064902;28;20047;-76
2022/11/13 08:19:19;;;;;;;11.25;7.10;;;;;;;4.43;98.30;102373.50;5069086;28;20067;-76
2022/11/13 08:22:03;;;;;;;9.32;6.32;;;;;;;4.53;98.46;102372.91;5067531;28;20047;-77
2022/11/13 08:24:47;;;;;;;12.43;6.78;;;;;;;4.64;98.65;102370.56;5062061;28;20138;-77
2022/11/13 08:27:31;;;;;;;10.27;6.85;;;;;;;4.76;99.59;102363.03;5056825;28;20059;-77
2022/11/13 08:30:15;;;;;;;10.68;7.82;;;;;;;4.87;99.53;102358.94;5060430;28;20047;-77
2022/11/13 08:32:59;;;;;;;11.68;7.90;;;;;;;5.00;99.19;102361.91;5068837;28;20090;-77
2022/11/13 08:35:51;;;;;;;10.05;7.35;;;;;;;5.12;98.77;102364.81;5064376;28;20047;-77
2022/11/13 08:38:35;;;;;;;12.65;8.38;;;;;;;5.23;98.71;102370.34;5068449;28;20123;-77
2022/11/13 08:41:19;;;;;;;12.10;8.15;;;;;;;5.33;98.25;102354.81;5073798;28;20574;-77
2022/11/13 08:44:03;;;;;;;14.20;7.70;;;;;;;5.44;97.90;102351.56;5058450;28;20417;-77
2022/11/13 08:46:48;;;;;;;12.05;7.80;;;;;;;5.54;97.67;102351.84;5063016;28;20044;-78
2022/11/13 08:49:31;;;;;;;11.68;7.80;;;;;;;5.67;97.16;102355.63;5063817;28;20100;-77
2022/11/13 08:52:15;;;;;;;10.95;7.97;;;;;;;5.78;96.86;102342.72;5062673;28;20047;-77
2022/11/13 08:54:59;;;;;;;11.32;8.27;;;;;;;5.91;96.50;102347.41;5074105;28;20048;-77
2022/11/13 08:57:43;;;;;;;12.40;8.23;;;;;;;6.01;95.97;102340.63;5080211;28;20082;-77
2022/11/13 09:00:28;;;;;;;13.98;8.52;;;;;;;6.13;94.39;102351.41;5052024;28;20507;-77
2022/11/13 09:03:13;;;;;;;11.88;8.18;;;;;;;6.23;94.57;102345.47;5066959;28;20586;-77
2022/11/13 09:05:57;;;;;;;9.00;7.43;;;;;;;6.32;94.04;102347.38;5082498;28;20135;-77
2022/11/13 09:08:41;;;;;;;10.65;7.60;;;;;;;6.42;94.29;102346.69;5058891;28;20058;-78
2022/11/13 09:11:27;;;;;;;13.57;8.40;;;;;;;6.52;93.98;102338.97;5059168;28;20568;-78
2022/11/13 09:14:12;;;;;;;12.75;8.05;;;;;;;6.63;93.14;102343.59;5057192;28;20040;-78
2022/11/13 09:16:56;;;;;;;12.65;7.97;;;;;;;6.73;92.35;102334.13;5059980;28;20063;-78
2022/11/13 09:19:39;;;;;;;13.82;7.47;;;;;;;6.86;91.77;102327.31;5057531;28;20404;-78
2022/11/13 09:22:23;;;;;;;10.02;7.68;;;;;;;7.01;91.29;102331.97;5062824;28;20105;-78
2022/11/13 09:25:08;;;;;;;13.65;7.20;;;;;;;7.14;91.50;102326.03;5059014;28;20059;-83
2022/11/13 09:27:57;;;;;;;12.27;7.25;;;;;;;7.28;90.00;102321.88;5070347;28;20496;-79
2022/11/13 09:30:41;;;;;;;9.10;6.75;;;;;;;7.41;88.86;102315.03;5071235;28;20055;-78
2022/11/13 09:33:25;;;;;;;11.68;7.10;;;;;;;7.53;87.85;102323.09;5068012;28;20055;-78
2022/11/13 09:36:11;;;;;;;10.38;6.65;;;;;;;7.65;87.33;102321.53;5071613;28;20067;-78
2022/11/13 09:38:55;;;;;;;12.65;6.95;;;;;;;7.73;88.09;102314.59;5069990;28;20048;-78
2022/11/13 09:41:45;;;;;;;8.75;6.15;;;;;;;7.81;87.29;102314.69;5068094;28;20091;-78
2022/11/13 09:44:35;;;;;;;8.60;6.20;;;;;;;7.91;87.34;102319.22;5078050;28;20127;-78
2022/11/13 09:47:26;;;;;;;11.20;6.05;;;;;;;8.05;85.65;102317.66;5068451;28;20051;-78
2022/11/13 09:50:21;;;;;;;7.78;5.90;;;;;;;8.17;85.59;102312.50;5066900;28;20051;-78
2022/11/13 09:53:06;;;;;;;8.65;6.00;;;;;;;8.31;82.36;102315.31;5069874;28;20113;-78
2022/11/13 09:56:19;;;;;;;7.38;6.03;;;;;;;8.46;83.52;102319.91;5066148;28;20132;-79
2022/11/13 09:59:07;;;;;;;8.38;5.88;;;;;;;8.60;82.20;102318.31;5054990;28;20413;-79
2022/11/13 10:02:02;;;;;;;13.57;6.00;;;;;;;8.73;82.76;102321.94;5060170;28;20047;-79
2022/11/13 10:05:10;;;;;;;8.82;6.03;;;;;;;8.85;80.08;102312.34;5065607;28;20568;-79
2022/11/13 10:08:15;;;;;;;8.05;6.13;;;;;;;8.97;81.58;102317.75;5052868;28;20464;-79
2022/11/13 10:11:20;;;;;;;7.07;5.55;;;;;;;9.08;79.71;102312.56;5057117;28;20534;-79
2022/11/13 10:14:13;;;;;;;6.97;5.40;;;;;;;9.21;79.65;102306.47;5056425;28;20102;-79
2022/11/13 10:17:10;;;;;;;9.15;5.53;;;;;;;9.35;78.02;102310.13;5063847;28;20079;-79
2022/11/13 10:20:14;;;;;;;8.40;5.70;;;;;;;9.47;78.41;102307.56;5068390;28;20153;-79
2022/11/13 10:23:23;;;;;;;7.35;5.47;;;;;;;9.59;77.47;102304.06;5056155;28;20074;-79
2022/11/13 10:26:16;;;;;;;7.85;5.45;;;;;;;9.70;77.70;102301.50;5057602;28;20073;-79
2022/11/13 10:29:12;;;;;;;7.63;5.10;;;;;;;9.79;76.16;102298.00;5060257;28;20068;-79
2022/11/13 10:31:58;;;;;;;9.18;5.72;;;;;;;9.90;76.13;102293.66;5066913;28;20047;-79
2022/11/13 10:34:52;;;;;;;9.80;5.30;;;;;;;10.03;74.85;102292.81;5056366;28;20052;-79
2022/11/13 10:37:53;;;;;;;10.32;6.25;;;;;;;10.22;78.72;102285.81;5061085;28;20097;-79
2022/11/13 10:40:38;;;;;;;;;;;;;;;10.35;80.94;102278.81;5074668;28;20075;-79
2022/11/13 10:43:25;;;;;;;6.85;4.82;;;;;;;10.51;75.51;102272.69;5080720;28;19927;-79
2022/11/13 10:46:19;;;;;;;8.73;5.05;;;;;;;10.58;74.62;102268.25;5071212;28;20039;-80
2022/11/13 10:49:24;;;;;;;8.48;5.03;;;;;;;10.74;75.31;102258.56;5075196;28;20182;-80
2022/11/13 10:52:20;;;;;;;7.90;5.22;;;;;;;10.96;77.96;102259.44;5060386;28;20047;-80
2022/11/13 10:55:33;;;;;;;9.27;5.10;;;;;;;11.17;76.35;102255.88;5067915;28;20048;-80
2022/11/13 10:58:19;;;;;;;6.93;5.05;;;;;;;11.37;71.89;102247.88;5083414;28;20043;-80
2022/11/13 11:01:21;;;;;;;9.48;5.05;;;;;;;11.60;75.03;102248.69;5084322;28;20071;-80
2022/11/13 11:04:11;;;;;;;7.78;4.88;;;;;;;11.93;73.06;102245.94;5057990;28;20042;-80
2022/11/13 11:07:11;;;;;;;7.28;4.60;;;;;;;12.11;69.99;102236.97;5071261;28;20109;-80
2022/11/13 11:09:55;;;;;;;7.65;4.32;;;;;;;12.27;67.55;102230.69;5065438;28;20048;-81
2022/11/13 11:12:39;;;;;;;5.43;4.32;;;;;;;12.41;66.64;102231.47;5072792;28;20047;-81
2022/11/13 11:15:31;;;;;;;7.07;4.68;;;;;;;12.67;70.29;102223.28;5073791;28;20408;-81
2022/11/13 11:18:38;;;;;;;7.30;4.07;;;;;;;12.88;71.19;102229.28;5088058;28;20052;-81
2022/11/13 11:21:29;;;;;;;8.18;4.07;;;;;;;13.15;68.73;102219.28;5063862;28;20048;-81
2022/11/13 11:24:16;;;;;;;8.63;3.72;;;;;;;13.42;66.30;102219.00;5070402;28;20044;-81
2022/11/13 11:27:08;;;;;;;5.90;4.20;;;;;;;13.61;61.48;102218.81;5075697;28;20048;-81
2022/11/13 11:30:19;;;;;;;6.35;3.92;;;;;;;13.84;62.68;102221.16;5064242;28;20048;-81
2022/11/13 11:33:28;;;;;;;6.10;4.40;;;;;;;14.13;66.90;102212.78;5062016;28;20074;-81
2022/11/13 11:36:36;;;;;;;6.18;4.13;;;;;;;14.55;67.35;102202.38;5073745;28;20047;-81
2022/11/13 11:39:38;;;;;;;7.82;4.10;;;;;;;14.92;60.39;102197.28;5073467;28;20095;-82
2022/11/13 11:42:37;;;;;;;6.90;3.78;;;;;;;15.08;62.42;102192.50;5073346;28;20181;-81
2022/11/13 11:45:38;;;;;;;6.43;3.78;;;;;;;15.27;62.94;102185.03;5078370;28;20384;-81
2022/11/13 11:48:26;;;;;;;4.65;3.88;;;;;;;15.50;58.41;102181.91;5073496;28;20051;-81
2022/11/13 11:51:33;;;;;;;6.65;3.55;;;;;;;15.76;60.35;102169.81;5074214;28;20052;-81
2022/11/13 11:54:35;;;;;;;5.97;3.58;;;;;;;15.90;59.08;102163.25;5060439;28;20059;-81
2022/11/13 11:57:50;;;;;;;7.13;3.00;;;;;;;15.99;57.72;102161.28;5083652;28;20101;-81
2022/11/13 12:00:42;;;;;;;4.35;3.20;;;;;;;16.15;54.90;102164.44;5063101;28;20083;-81
2022/11/13 12:03:35;;;;;;;5.95;3.33;;;;;;;16.43;54.35;102159.31;5074459;28;20121;-81
2022/11/13 12:06:38;;;;;;;4.88;3.30;;;;;;;16.51;52.33;102149.28;5062930;28;20044;-81
2022/11/13 12:09:27;;;;;;;4.72;2.90;;;;;;;16.63;52.34;102145.44;5060020;28;20193;-81
2022/11/13 12:12:46;;;;;;;6.05;3.72;;;;;;;16.86;57.64;102137.69;5084692;28;20482;-81
2022/11/13 12:15:42;;;;;;;6.22;4.35;;;;;;;17.32;57.39;102135.50;5070538;28;20450;-76
2022/11/13 12:18:50;;;;;;;6.03;4.30;;;;;;;17.74;58.06;102136.00;5053902;28;20221;-77
2022/11/13 12:21:46;;;;;;;6.90;4.63;;;;;;;17.79;54.22;102135.88;5064647;28;20055;-76
2022/11/13 12:24:49;;;;;;;6.35;4.32;;;;;;;17.53;50.75;102131.31;5059069;28;20090;-76
2022/11/13 12:28:07;;;;;;;5.78;4.28;;;;;;;17.46;56.65;102127.06;5055583;28;20121;-76
2022/11/13 12:31:28;;;;;;;6.15;4.75;;;;;;;17.52;53.97;102117.03;5066543;28;20055;-76
2022/11/13 12:34:30;;;;;;;6.93;4.38;;;;;;;17.74;52.49;102119.06;5070092;28;20110;-76
2022/11/13 12:37:21;;;;;;;6.25;4.80;;;;;;;17.56;51.29;102112.50;5086202;28;20107;-76
2022/11/13 12:40:20;;;;;;;;;;;;;;;17.60;57.95;102112.31;5062055;28;20043;-76
2022/11/13 12:43:07;;;;;;;6.00;4.22;;;;;;;17.24;53.44;102108.97;5072144;28;19919;-76
2022/11/13 12:45:54;;;;;;;6.80;4.45;;;;;;;17.13;52.01;102101.22;5073068;28;20060;-76
2022/11/13 12:48:41;;;;;;;7.22;4.82;;;;;;;17.50;55.32;102093.91;5086508;28;20139;-76
2022/11/13 12:51:37;;;;;;;9.40;4.80;;;;;;;17.88;53.99;102090.06;5068489;28;20474;-76
2022/11/13 12:54:33;;;;;;;8.70;4.53;;;;;;;17.94;52.28;102083.63;5067715;28;20051;-76
2022/11/13 12:57:23;;;;;;;6.43;4.35;;;;;;;18.22;51.63;102078.19;5062224;28;20098;-76
2022/11/13 13:00:23;;;;;;;8.07;4.27;;;;;;;18.41;53.02;102075.75;5068525;28;20132;-76
2022/11/13 13:03:27;;;;;;;5.20;3.40;;;;;;;18.33;51.99;102072.50;5060005;28;20052;-76
2022/11/13 13:06:35;;;;;;;5.80;4.10;;;;;;;18.18;49.10;102068.53;5053040;28;20396;-76